Schedule Details


Flight Number: CTN632
Departure: Zemunik (LDZD) at 22:25
Arrival: Pula (LDPL) at 23:00
Route: EBITA N606 LOS

Weather Information
LDZD 220400Z 08004KT 040V120 CAVOK 09/08 Q1017 NOSIG
LDPL 220400Z 07006KT CAVOK 10/09 Q1017 NOSIG
Schedule Frequency

Route Map